Archival Weather

Tokyo Intl

Tokyo, Japan (RJTT)

Report from: Tuesday, November 21, 2023 9:00 PM JST
Current time: Saturday, March 2, 2024 7:40 PM JST

Current weather – Weather history – Daily summaries
Weather forecast

Temperature15.0°C (59.0°F)
Dew point9.0°C (48.2°F)
Winds 7 kts (3.6 m/s, 8.1 mph) Vrb
Winds variableWinds variable from North-Northwest (330°) to Northeast (40°)
Visibility6.2 mi. (10 km)
Clouds Few clouds 3,000 ft. (914 m)
Altimeter30.15 in.Hg (1021 mB)
Relative humidity67 %
Density altitude-98 ft. (-30 m)
Remarks No significant changes expected in the next two hours
Flight conditions Visual Meteorological Conditions
Raw dataRJTT 211200Z 01007KT 330V040 9999 FEW030 15/09 Q1021 NOSIG
An error has occurred. This application may no longer respond until reloaded. Reload 🗙